Time;durP1;ratioP1;P1;durP2;ratioP2;P2;SDS_P1;SDS_P2;PMS_P1;PMS_P2;Temp;Humidity;BMP_temperature;BMP_pressure;BME280_temperature;BME280_humidity;BME280_pressure;Samples;Min_cycle;Max_cycle;Signal;HPM_P1;HPM_P2
2022/03/27 00:00:13;;;;;;;8.30;3.20;;;;;;;;;;107456;1271;63128;-29
2022/03/27 00:03:05;;;;;;;7.10;3.00;;;;;;;;;;107427;1271;63744;-29
2022/03/27 00:05:37;;;;;;;9.10;3.60;;;;;;;;;;107475;1271;63080;-30
2022/03/27 00:08:04;;;;;;;7.70;3.00;;;;;;;;;;107419;1271;63230;-32
2022/03/27 00:11:23;;;;;;;8.10;3.20;;;;;;;;;;107482;1271;63235;-30
2022/03/27 00:13:22;;;;;;;7.20;2.60;;;;;;;;;;107296;1272;63215;-30
2022/03/27 00:15:50;;;;;;;7.30;2.70;;;;;;;;;;107308;1274;63222;-30
2022/03/27 00:18:21;;;;;;;6.50;2.70;;;;;;;;;;107330;1274;63236;-30
2022/03/27 00:20:52;;;;;;;8.20;3.50;;;;;;;;;;107288;1274;60845;-30
2022/03/27 00:23:20;;;;;;;7.10;2.90;;;;;;;;;;107271;1274;64046;-30
2022/03/27 00:25:48;;;;;;;8.80;3.00;;;;;;;;;;107259;1274;64066;-29
2022/03/27 00:28:16;;;;;;;7.10;2.60;;;;;;;;;;107249;1274;64075;-29
2022/03/27 00:30:43;;;;;;;5.50;2.30;;;;;;;;;;107264;1274;63905;-30
2022/03/27 00:33:13;;;;;;;7.50;2.70;;;;;;;;;;107281;1274;63899;-30
2022/03/27 00:35:40;;;;;;;8.80;3.20;;;;;;;;;;107258;1274;63935;-29
2022/03/27 00:38:07;;;;;;;6.70;2.60;;;;;;;;;;107227;1273;64037;-30
2022/03/27 00:40:35;;;;;;;7.30;2.80;;;;;;;;;;107269;1274;64145;-30
2022/03/27 00:43:05;;;;;;;7.00;2.60;;;;;;;;;;107280;1273;63964;-29
2022/03/27 00:45:32;;;;;;;6.60;2.90;;;;;;;;;;107293;1274;64018;-29
2022/03/27 00:48:03;;;;;;;7.50;2.90;;;;;;;;;;107261;1274;64072;-29
2022/03/27 00:50:33;;;;;;;7.00;2.60;;;;;;;;;;107290;1274;63978;-29
2022/03/27 00:53:01;;;;;;;6.10;2.70;;;;;;;;;;107246;1273;63964;-30
2022/03/27 00:55:34;;;;;;;5.80;2.60;;;;;;;;;;107278;1274;63974;-28
2022/03/27 00:58:06;;;;;;;5.50;2.30;;;;;;;;;;107257;1274;64439;-29
2022/03/27 01:00:41;;;;;;;6.90;2.60;;;;;;;;;;107270;1272;64021;-29
2022/03/27 01:03:12;;;;;;;6.00;2.50;;;;;;;;;;107269;1274;63948;-29
2022/03/27 01:05:40;;;;;;;5.80;2.40;;;;;;;;;;107276;1274;64049;-29
2022/03/27 01:08:12;;;;;;;5.70;2.60;;;;;;;;;;107304;1274;64035;-29
2022/03/27 01:10:41;;;;;;;7.60;2.50;;;;;;;;;;107289;1274;64132;-29
2022/03/27 01:13:19;;;;;;;6.50;2.50;;;;;;;;;;107275;1274;63961;-29
2022/03/27 01:15:53;;;;;;;5.00;2.40;;;;;;;;;;107234;1273;64022;-29
2022/03/27 01:18:23;;;;;;;;;;;;;;;;;;107287;1274;63901;-30
2022/03/27 01:20:50;;;;;;;6.10;2.40;;;;;;;;;;107260;1272;65113;-29
2022/03/27 01:23:20;;;;;;;5.50;2.40;;;;;;;;;;107241;1273;63952;-29
2022/03/27 01:25:47;;;;;;;6.40;2.40;;;;;;;;;;107253;1273;64025;-30
2022/03/27 01:28:14;;;;;;;5.60;2.30;;;;;;;;;;107272;1274;64026;-30
2022/03/27 01:30:42;;;;;;;5.80;2.40;;;;;;;;;;107253;1273;63937;-29
2022/03/27 01:33:09;;;;;;;7.50;2.50;;;;;;;;;;107283;1274;64043;-28
2022/03/27 01:35:37;;;;;;;6.20;2.50;;;;;;;;;;107278;1274;64705;-28
2022/03/27 01:38:07;;;;;;;5.80;2.10;;;;;;;;;;107255;1274;64041;-30
2022/03/27 01:40:37;;;;;;;6.10;2.30;;;;;;;;;;107269;1274;64053;-29
2022/03/27 01:43:04;;;;;;;7.80;2.30;;;;;;;;;;107234;1274;64155;-29
2022/03/27 01:45:34;;;;;;;4.60;2.20;;;;;;;;;;107285;1274;63938;-29
2022/03/27 01:48:01;;;;;;;5.70;2.40;;;;;;;;;;107277;1274;63921;-31
2022/03/27 01:50:32;;;;;;;5.30;2.10;;;;;;;;;;107265;1274;64051;-35
2022/03/27 01:52:59;;;;;;;5.90;2.30;;;;;;;;;;107245;1274;63948;-34
2022/03/27 01:55:26;;;;;;;5.80;2.00;;;;;;;;;;107273;1274;64040;-28
2022/03/27 01:57:54;;;;;;;5.80;2.20;;;;;;;;;;107297;1273;64054;-30
2022/03/27 02:00:21;;;;;;;4.60;2.30;;;;;;;;;;107255;1273;64053;-30
2022/03/27 02:02:48;;;;;;;5.30;2.30;;;;;;;;;;107246;1273;64111;-27
2022/03/27 02:05:15;;;;;;;5.80;2.00;;;;;;;;;;107274;1274;64146;-30
2022/03/27 02:07:44;;;;;;;5.30;2.10;;;;;;;;;;107239;1273;64138;-29
2022/03/27 02:10:17;;;;;;;4.70;2.30;;;;;;;;;;107255;1273;64002;-27
2022/03/27 02:12:44;;;;;;;5.90;2.20;;;;;;;;;;107272;1274;64709;-29
2022/03/27 02:15:14;;;;;;;6.30;2.00;;;;;;;;;;107268;1271;64064;-29
2022/03/27 02:17:41;;;;;;;5.00;2.00;;;;;;;;;;107306;1271;63941;-30
2022/03/27 02:20:09;;;;;;;5.40;2.20;;;;;;;;;;107330;1271;63954;-29
2022/03/27 02:22:37;;;;;;;4.70;2.00;;;;;;;;;;107301;1271;64052;-29
2022/03/27 02:25:05;;;;;;;5.10;2.10;;;;;;;;;;107289;1274;63916;-27
2022/03/27 02:27:32;;;;;;;4.70;1.80;;;;;;;;;;107309;1271;63932;-29
2022/03/27 02:29:59;;;;;;;5.60;2.00;;;;;;;;;;107284;1271;63937;-29
2022/03/27 02:32:26;;;;;;;6.00;2.40;;;;;;;;;;107235;1274;63911;-30
2022/03/27 02:34:53;;;;;;;5.30;2.40;;;;;;;;;;107289;1271;64102;-30
2022/03/27 02:37:20;;;;;;;5.30;2.00;;;;;;;;;;107251;1271;64037;-30
2022/03/27 02:39:48;;;;;;;5.20;2.30;;;;;;;;;;107250;1274;64033;-29
2022/03/27 02:42:17;;;;;;;5.20;2.10;;;;;;;;;;107296;1271;63940;-29
2022/03/27 02:44:45;;;;;;;4.40;2.00;;;;;;;;;;107243;1274;64006;-29
2022/03/27 02:47:14;;;;;;;5.70;2.20;;;;;;;;;;107290;1271;63965;-29
2022/03/27 02:49:42;;;;;;;5.00;2.10;;;;;;;;;;107278;1274;63938;-29
2022/03/27 02:52:13;;;;;;;4.00;1.90;;;;;;;;;;107252;1271;63847;-30
2022/03/27 02:54:40;;;;;;;5.90;2.30;;;;;;;;;;107280;1271;64137;-27
2022/03/27 02:57:10;;;;;;;4.90;2.20;;;;;;;;;;107285;1271;64005;-30
2022/03/27 02:59:38;;;;;;;5.00;2.30;;;;;;;;;;107326;1271;64831;-29
2022/03/27 03:02:09;;;;;;;7.00;2.30;;;;;;;;;;107287;1271;64094;-30
2022/03/27 03:04:36;;;;;;;5.30;2.30;;;;;;;;;;107314;1271;64014;-29
2022/03/27 03:07:04;;;;;;;6.10;2.10;;;;;;;;;;107271;1271;64001;-27
2022/03/27 03:09:31;;;;;;;5.10;2.00;;;;;;;;;;107316;1271;64100;-28
2022/03/27 03:11:58;;;;;;;4.40;1.60;;;;;;;;;;107295;1271;64708;-29
2022/03/27 03:14:25;;;;;;;6.20;2.10;;;;;;;;;;107280;1271;63931;-29
2022/03/27 03:16:53;;;;;;;5.70;1.70;;;;;;;;;;107257;1274;64052;-30
2022/03/27 03:19:20;;;;;;;6.70;2.30;;;;;;;;;;107274;1271;64107;-30
2022/03/27 03:21:47;;;;;;;5.10;2.10;;;;;;;;;;107230;1271;64066;-29
2022/03/27 03:24:17;;;;;;;4.80;1.90;;;;;;;;;;107298;1271;63860;-30
2022/03/27 03:26:44;;;;;;;5.00;1.80;;;;;;;;;;107250;1274;64588;-29
2022/03/27 03:29:11;;;;;;;5.30;1.90;;;;;;;;;;107294;1271;63940;-28
2022/03/27 03:31:38;;;;;;;5.00;2.00;;;;;;;;;;107272;1271;64785;-29
2022/03/27 03:34:08;;;;;;;5.50;1.90;;;;;;;;;;107250;1271;64072;-29
2022/03/27 03:36:35;;;;;;;5.40;1.90;;;;;;;;;;107287;1271;61470;-30
2022/03/27 03:39:05;;;;;;;4.00;2.00;;;;;;;;;;107326;1271;64183;-29
2022/03/27 03:41:32;;;;;;;5.90;2.00;;;;;;;;;;107292;1271;63957;-29
2022/03/27 03:43:59;;;;;;;6.20;2.50;;;;;;;;;;107278;1271;64040;-29
2022/03/27 03:46:26;;;;;;;4.80;1.80;;;;;;;;;;107284;1271;64053;-30
2022/03/27 03:48:53;;;;;;;4.50;2.00;;;;;;;;;;107301;1274;63941;-28
2022/03/27 03:51:21;;;;;;;4.20;1.80;;;;;;;;;;107261;1274;64056;-29
2022/03/27 03:53:48;;;;;;;4.80;2.10;;;;;;;;;;107250;1274;64108;-29
2022/03/27 03:56:18;;;;;;;4.90;2.00;;;;;;;;;;107242;1271;64049;-29
2022/03/27 03:58:45;;;;;;;5.80;2.40;;;;;;;;;;107263;1274;63928;-30
2022/03/27 04:01:12;;;;;;;4.80;1.80;;;;;;;;;;107284;1274;64031;-29
2022/03/27 04:03:39;;;;;;;5.80;1.80;;;;;;;;;;107278;1272;63951;-29
2022/03/27 04:06:09;;;;;;;4.80;1.80;;;;;;;;;;107289;1271;64056;-31
2022/03/27 04:08:36;;;;;;;4.90;2.00;;;;;;;;;;107256;1274;63992;-30
2022/03/27 04:11:06;;;;;;;5.00;1.90;;;;;;;;;;107257;1274;63939;-31
2022/03/27 04:13:36;;;;;;;4.70;2.00;;;;;;;;;;107287;1271;63907;-44
2022/03/27 04:16:06;;;;;;;5.10;2.10;;;;;;;;;;107265;1271;63915;-29
2022/03/27 04:18:37;;;;;;;5.10;2.20;;;;;;;;;;107258;1271;64043;-29
2022/03/27 04:21:04;;;;;;;4.80;1.70;;;;;;;;;;107266;1272;63883;-29
2022/03/27 04:23:31;;;;;;;4.80;2.10;;;;;;;;;;107195;1273;64050;-30
2022/03/27 04:25:59;;;;;;;4.80;2.10;;;;;;;;;;107050;1271;283597;-28
2022/03/27 04:28:26;;;;;;;4.50;1.80;;;;;;;;;;107287;1271;63908;-29
2022/03/27 04:30:53;;;;;;;4.70;2.20;;;;;;;;;;107240;1274;64025;-29
2022/03/27 04:33:23;;;;;;;4.20;1.90;;;;;;;;;;107261;1271;63941;-32
2022/03/27 04:35:50;;;;;;;4.60;1.80;;;;;;;;;;107267;1271;63935;-29
2022/03/27 04:38:17;;;;;;;4.40;1.90;;;;;;;;;;107304;1271;63905;-29
2022/03/27 04:40:45;;;;;;;5.10;1.80;;;;;;;;;;107302;1273;63911;-28
2022/03/27 04:43:15;;;;;;;4.80;1.80;;;;;;;;;;107291;1271;63960;-29
2022/03/27 04:45:42;;;;;;;6.00;2.40;;;;;;;;;;107271;1271;63898;-30
2022/03/27 04:48:12;;;;;;;5.90;2.20;;;;;;;;;;107237;1271;63927;-28
2022/03/27 04:50:40;;;;;;;5.20;2.30;;;;;;;;;;107341;1271;64381;-29
2022/03/27 04:53:10;;;;;;;5.50;2.40;;;;;;;;;;107272;1274;64162;-29
2022/03/27 04:55:38;;;;;;;4.70;2.10;;;;;;;;;;107169;1274;64032;-29
2022/03/27 04:58:09;;;;;;;5.40;2.00;;;;;;;;;;107332;1270;64028;-30
2022/03/27 05:00:38;;;;;;;4.70;1.80;;;;;;;;;;107283;1271;63911;-29
2022/03/27 05:03:11;;;;;;;4.80;1.90;;;;;;;;;;107307;1274;63940;-30
2022/03/27 05:05:40;;;;;;;4.80;2.20;;;;;;;;;;107291;1271;63940;-28
2022/03/27 05:08:10;;;;;;;5.80;1.90;;;;;;;;;;107306;1271;63934;-29
2022/03/27 05:10:38;;;;;;;5.50;2.20;;;;;;;;;;107293;1271;64140;-28
2022/03/27 05:13:09;;;;;;;5.10;1.90;;;;;;;;;;107247;1271;65171;-29
2022/03/27 05:15:36;;;;;;;4.60;2.00;;;;;;;;;;107271;1274;63901;-29
2022/03/27 05:18:03;;;;;;;4.40;1.90;;;;;;;;;;107268;1274;64063;-31
2022/03/27 05:20:41;;;;;;;4.80;2.00;;;;;;;;;;107311;1271;64026;-29
2022/03/27 05:23:09;;;;;;;5.70;2.00;;;;;;;;;;107304;1271;63928;-29
2022/03/27 05:25:40;;;;;;;5.00;2.20;;;;;;;;;;107289;1271;63930;-29
2022/03/27 05:28:11;;;;;;;5.80;2.20;;;;;;;;;;107292;1271;63915;-30
2022/03/27 05:30:41;;;;;;;6.20;2.10;;;;;;;;;;107319;1271;64057;-28
2022/03/27 05:33:08;;;;;;;5.20;2.10;;;;;;;;;;107303;1271;63935;-29
2022/03/27 05:35:36;;;;;;;5.50;2.20;;;;;;;;;;107275;1271;64049;-29
2022/03/27 05:38:04;;;;;;;5.80;2.30;;;;;;;;;;107284;1272;64018;-29
2022/03/27 05:40:31;;;;;;;5.10;2.10;;;;;;;;;;107332;1271;63949;-29
2022/03/27 05:43:01;;;;;;;5.10;1.80;;;;;;;;;;107271;1274;63940;-29
2022/03/27 05:45:29;;;;;;;5.00;1.80;;;;;;;;;;107265;1270;64050;-29
2022/03/27 05:47:56;;;;;;;4.90;2.00;;;;;;;;;;107182;1273;64031;-30
2022/03/27 05:50:26;;;;;;;4.60;1.90;;;;;;;;;;107261;1271;64029;-29
2022/03/27 05:52:54;;;;;;;4.50;1.80;;;;;;;;;;107309;1271;63924;-28
2022/03/27 05:55:23;;;;;;;4.50;1.90;;;;;;;;;;107323;1271;64247;-27
2022/03/27 05:57:49;;;;;;;4.80;1.80;;;;;;;;;;107302;1271;64060;-30
2022/03/27 06:00:21;;;;;;;4.70;1.90;;;;;;;;;;107265;1271;63994;-30
2022/03/27 06:02:49;;;;;;;4.60;1.70;;;;;;;;;;107280;1271;63976;-30
2022/03/27 06:05:23;;;;;;;3.90;1.60;;;;;;;;;;107310;1274;64037;-30
2022/03/27 06:07:55;;;;;;;4.60;1.80;;;;;;;;;;107279;1271;63944;-29
2022/03/27 06:10:31;;;;;;;5.40;2.20;;;;;;;;;;107283;1271;63991;-29
2022/03/27 06:12:59;;;;;;;4.20;1.90;;;;;;;;;;107259;1271;63914;-29
2022/03/27 06:15:30;;;;;;;4.70;1.90;;;;;;;;;;107297;1271;64077;-29
2022/03/27 06:18:01;;;;;;;4.90;1.70;;;;;;;;;;107219;1273;64129;-29
2022/03/27 06:20:31;;;;;;;5.00;2.00;;;;;;;;;;107277;1271;64705;-29
2022/03/27 06:22:58;;;;;;;4.80;2.00;;;;;;;;;;107275;1271;63963;-29
2022/03/27 06:25:31;;;;;;;4.80;1.80;;;;;;;;;;107185;1274;64155;-29
2022/03/27 06:28:00;;;;;;;5.80;1.90;;;;;;;;;;107248;1274;64153;-28
2022/03/27 06:30:32;;;;;;;4.30;2.20;;;;;;;;;;107324;1271;64027;-29
2022/03/27 06:33:00;;;;;;;4.90;1.50;;;;;;;;;;107302;1271;64212;-30
2022/03/27 06:35:31;;;;;;;4.30;1.80;;;;;;;;;;107272;1274;64062;-29
2022/03/27 06:37:58;;;;;;;4.00;1.50;;;;;;;;;;107274;1274;63929;-30
2022/03/27 06:40:26;;;;;;;5.20;1.70;;;;;;;;;;107224;1271;63950;-29
2022/03/27 06:42:57;;;;;;;5.40;1.80;;;;;;;;;;107344;1271;64029;-29
2022/03/27 06:45:24;;;;;;;4.50;1.80;;;;;;;;;;107289;1271;65098;-29
2022/03/27 06:47:51;;;;;;;4.70;1.80;;;;;;;;;;107282;1274;63941;-29
2022/03/27 06:50:23;;;;;;;4.90;1.60;;;;;;;;;;107259;1274;64055;-28
2022/03/27 06:52:51;;;;;;;4.30;1.50;;;;;;;;;;107281;1271;63938;-29
2022/03/27 06:55:20;;;;;;;4.50;2.10;;;;;;;;;;107282;1274;63956;-29
2022/03/27 06:57:47;;;;;;;4.30;1.70;;;;;;;;;;107275;1274;63924;-29
2022/03/27 07:03:02;;;;;;;4.80;1.80;;;;;;;;;;107274;1271;63986;-27
2022/03/27 07:05:35;;;;;;;4.10;1.60;;;;;;;;;;107264;1271;64108;-28
2022/03/27 07:08:04;;;;;;;4.00;1.50;;;;;;;;;;107304;1271;64046;-29
2022/03/27 07:10:36;;;;;;;3.90;1.90;;;;;;;;;;107305;1271;64037;-31
2022/03/27 07:13:04;;;;;;;3.70;1.40;;;;;;;;;;107255;1271;64054;-29
2022/03/27 07:15:31;;;;;;;3.70;1.40;;;;;;;;;;107307;1271;64005;-29
2022/03/27 07:17:59;;;;;;;4.30;1.80;;;;;;;;;;107174;1271;64062;-30
2022/03/27 07:20:28;;;;;;;4.10;1.60;;;;;;;;;;107288;1271;63934;-30
2022/03/27 07:23:02;;;;;;;3.80;1.50;;;;;;;;;;107328;1271;63938;-29
2022/03/27 07:25:34;;;;;;;4.00;1.50;;;;;;;;;;107273;1271;64091;-39
2022/03/27 07:28:06;;;;;;;4.20;1.40;;;;;;;;;;107314;1271;63967;-29
2022/03/27 07:30:36;;;;;;;4.30;1.60;;;;;;;;;;107312;1274;64071;-29
2022/03/27 07:33:04;;;;;;;3.90;1.40;;;;;;;;;;107280;1272;64027;-36
2022/03/27 07:35:34;;;;;;;3.20;1.30;;;;;;;;;;107305;1271;64047;-29
2022/03/27 07:38:03;;;;;;;3.70;1.60;;;;;;;;;;107248;1274;64056;-29
2022/03/27 07:40:31;;;;;;;4.90;1.40;;;;;;;;;;107261;1274;64066;-29
2022/03/27 07:42:59;;;;;;;4.70;1.70;;;;;;;;;;107293;1271;63911;-29
2022/03/27 07:45:29;;;;;;;4.40;1.40;;;;;;;;;;107300;1271;63916;-28
2022/03/27 07:47:59;;;;;;;3.60;1.30;;;;;;;;;;107285;1271;63944;-29
2022/03/27 07:50:30;;;;;;;3.80;1.50;;;;;;;;;;107281;1271;64062;-29
2022/03/27 07:53:01;;;;;;;4.40;1.50;;;;;;;;;;107272;1271;64117;-29
2022/03/27 07:55:32;;;;;;;5.20;1.50;;;;;;;;;;107314;1271;63804;-29
2022/03/27 07:58:02;;;;;;;3.60;1.30;;;;;;;;;;107271;1274;64031;-29
2022/03/27 08:00:32;;;;;;;3.20;1.10;;;;;;;;;;107277;1271;63940;-29
2022/03/27 08:03:02;;;;;;;3.40;1.10;;;;;;;;;;107272;1271;64079;-29
2022/03/27 08:05:32;;;;;;;4.10;1.40;;;;;;;;;;107259;1274;63952;-29
2022/03/27 08:08:00;;;;;;;4.80;1.40;;;;;;;;;;107244;1273;63917;-29
2022/03/27 08:10:27;;;;;;;3.10;1.30;;;;;;;;;;107313;1271;63879;-29
2022/03/27 08:12:54;;;;;;;3.50;1.40;;;;;;;;;;107290;1271;64031;-30
2022/03/27 08:15:22;;;;;;;5.30;1.60;;;;;;;;;;107259;1271;64032;-29
2022/03/27 08:17:54;;;;;;;4.30;2.00;;;;;;;;;;107293;1271;64046;-29
2022/03/27 08:20:25;;;;;;;5.60;2.00;;;;;;;;;;107258;1274;63919;-30
2022/03/27 08:22:56;;;;;;;5.10;1.60;;;;;;;;;;107315;1271;64065;-30
2022/03/27 08:28:16;;;;;;;4.60;1.60;;;;;;;;;;107266;1274;63853;-29
2022/03/27 08:30:43;;;;;;;3.70;1.70;;;;;;;;;;107282;1271;64018;-29
2022/03/27 08:33:15;;;;;;;6.70;2.00;;;;;;;;;;107274;1271;64009;-30
2022/03/27 08:35:43;;;;;;;3.80;1.60;;;;;;;;;;107314;1274;63925;-29
2022/03/27 08:38:12;;;;;;;4.50;1.60;;;;;;;;;;107294;1274;63952;-29
2022/03/27 08:40:44;;;;;;;4.90;1.60;;;;;;;;;;107252;1271;64011;-30
2022/03/27 08:43:13;;;;;;;3.50;1.40;;;;;;;;;;107288;1271;64002;-29
2022/03/27 08:45:41;;;;;;;4.90;1.50;;;;;;;;;;107293;1271;64058;-27
2022/03/27 08:48:12;;;;;;;3.70;1.60;;;;;;;;;;107320;1271;63885;-28
2022/03/27 08:51:06;;;;;;;5.20;1.60;;;;;;;;;;107279;1274;64070;-29
2022/03/27 08:53:36;;;;;;;4.40;1.80;;;;;;;;;;107282;1271;63985;-29
2022/03/27 08:56:06;;;;;;;3.80;1.40;;;;;;;;;;107281;1271;63969;-29
2022/03/27 08:58:37;;;;;;;4.60;1.50;;;;;;;;;;107269;1271;64059;-30
2022/03/27 09:01:05;;;;;;;5.10;1.60;;;;;;;;;;107305;1271;64022;-30
2022/03/27 09:03:35;;;;;;;4.40;1.70;;;;;;;;;;107329;1271;63916;-30
2022/03/27 09:06:07;;;;;;;4.00;1.50;;;;;;;;;;107303;1271;63903;-30
2022/03/27 09:08:37;;;;;;;4.30;1.80;;;;;;;;;;107307;1271;64145;-29
2022/03/27 09:11:15;;;;;;;4.10;1.50;;;;;;;;;;107279;1271;63934;-29
2022/03/27 09:13:48;;;;;;;3.90;1.40;;;;;;;;;;107457;1271;63982;-30
2022/03/27 09:16:16;;;;;;;3.90;1.30;;;;;;;;;;107417;1271;63905;-30
2022/03/27 09:18:55;;;;;;;4.10;1.60;;;;;;;;;;107301;1271;64033;-30
2022/03/27 09:21:29;;;;;;;4.80;1.30;;;;;;;;;;107274;1274;64121;-29
2022/03/27 09:24:00;;;;;;;4.30;1.10;;;;;;;;;;107455;1271;64751;-30
2022/03/27 09:26:32;;;;;;;7.40;1.30;;;;;;;;;;107430;1271;62766;-27
2022/03/27 09:29:10;;;;;;;5.00;1.40;;;;;;;;;;107476;1271;64753;-29
2022/03/27 09:31:40;;;;;;;4.10;1.10;;;;;;;;;;107457;1271;62759;-31
2022/03/27 09:34:08;;;;;;;5.10;1.40;;;;;;;;;;107434;1271;64020;-29
2022/03/27 09:36:43;;;;;;;5.10;1.20;;;;;;;;;;107428;1270;63917;-29
2022/03/27 09:39:20;;;;;;;3.80;1.20;;;;;;;;;;107430;1271;63868;-32
2022/03/27 09:41:59;;;;;;;4.00;1.20;;;;;;;;;;107309;1272;64922;-30
2022/03/27 09:44:31;;;;;;;3.90;1.00;;;;;;;;;;107421;1271;64148;-34
2022/03/27 09:47:00;;;;;;;3.70;1.00;;;;;;;;;;107472;1271;63980;-29
2022/03/27 09:49:31;;;;;;;3.00;1.00;;;;;;;;;;107418;1270;63902;-34
2022/03/27 09:52:17;;;;;;;3.70;0.90;;;;;;;;;;107448;1271;64139;-30
2022/03/27 09:54:53;;;;;;;4.00;1.20;;;;;;;;;;107478;1271;63935;-29
2022/03/27 09:57:27;;;;;;;3.60;1.00;;;;;;;;;;107469;1271;64048;-30
2022/03/27 09:59:56;;;;;;;4.30;1.20;;;;;;;;;;107254;1272;64133;-29
2022/03/27 10:05:47;;;;;;;3.70;0.90;;;;;;;;;;107306;1271;63983;-29
2022/03/27 10:08:17;;;;;;;5.20;1.10;;;;;;;;;;107435;1271;63931;-29
2022/03/27 10:10:46;;;;;;;3.20;1.00;;;;;;;;;;107448;1271;63892;-30
2022/03/27 10:13:17;;;;;;;3.60;1.00;;;;;;;;;;107441;1271;63918;-29
2022/03/27 10:15:45;;;;;;;3.50;1.00;;;;;;;;;;107408;1271;64142;-29
2022/03/27 10:18:15;;;;;;;4.00;1.30;;;;;;;;;;107438;1271;63906;-29
2022/03/27 10:20:43;;;;;;;2.80;0.80;;;;;;;;;;107449;1271;63960;-30
2022/03/27 10:23:19;;;;;;;3.80;1.00;;;;;;;;;;107403;1271;64012;-30
2022/03/27 10:25:50;;;;;;;3.20;1.00;;;;;;;;;;107289;1274;64107;-28
2022/03/27 10:28:21;;;;;;;3.10;1.00;;;;;;;;;;107261;1272;64503;-31
2022/03/27 10:30:52;;;;;;;3.30;0.90;;;;;;;;;;107463;1271;63924;-29
2022/03/27 10:33:25;;;;;;;2.90;0.90;;;;;;;;;;107443;1270;64046;-30
2022/03/27 10:36:18;;;;;;;4.30;1.00;;;;;;;;;;107403;1271;64076;-31
2022/03/27 10:39:11;;;;;;;2.30;0.70;;;;;;;;;;107432;1271;63893;-29
2022/03/27 10:41:57;;;;;;;3.40;0.90;;;;;;;;;;107393;1271;64028;-29
2022/03/27 10:44:53;;;;;;;2.50;0.90;;;;;;;;;;107439;1271;64188;-29
2022/03/27 10:47:26;;;;;;;2.10;0.70;;;;;;;;;;107455;1271;64072;-29
2022/03/27 10:50:02;;;;;;;3.60;1.20;;;;;;;;;;107305;1271;64003;-31
2022/03/27 10:52:34;;;;;;;3.60;0.90;;;;;;;;;;107408;1271;64104;-31
2022/03/27 10:55:15;;;;;;;3.70;1.40;;;;;;;;;;107452;1271;63957;-29
2022/03/27 10:57:52;;;;;;;3.50;1.00;;;;;;;;;;107452;1271;63921;-29
2022/03/27 11:00:39;;;;;;;4.00;0.90;;;;;;;;;;107475;1271;64359;-29
2022/03/27 11:03:07;;;;;;;2.90;0.90;;;;;;;;;;107429;1271;64145;-29
2022/03/27 11:05:39;;;;;;;3.00;0.90;;;;;;;;;;107439;1271;63950;-28
2022/03/27 11:08:16;;;;;;;2.90;0.90;;;;;;;;;;107305;1271;63928;-29
2022/03/27 11:10:55;;;;;;;2.40;0.70;;;;;;;;;;107448;1271;64017;-27
2022/03/27 11:13:25;;;;;;;2.90;0.80;;;;;;;;;;107470;1271;64018;-29
2022/03/27 11:16:12;;;;;;;4.10;1.00;;;;;;;;;;107434;1271;64038;-29
2022/03/27 11:18:44;;;;;;;3.30;0.80;;;;;;;;;;107454;1271;64035;-28
2022/03/27 11:21:13;;;;;;;2.90;1.00;;;;;;;;;;107388;1271;63963;-30
2022/03/27 11:23:41;;;;;;;2.20;0.80;;;;;;;;;;107436;1271;63939;-29
2022/03/27 11:26:21;;;;;;;3.10;0.70;;;;;;;;;;107423;1271;63938;-29
2022/03/27 11:28:54;;;;;;;2.30;0.70;;;;;;;;;;107406;1271;63958;-30
2022/03/27 11:31:26;;;;;;;2.40;0.70;;;;;;;;;;107461;1271;64036;-29
2022/03/27 11:34:02;;;;;;;3.40;0.80;;;;;;;;;;107423;1271;63940;-29
2022/03/27 11:36:30;;;;;;;2.50;0.80;;;;;;;;;;107441;1271;62698;-29
2022/03/27 11:39:04;;;;;;;3.00;0.80;;;;;;;;;;107404;1271;63918;-29
2022/03/27 11:41:53;;;;;;;2.80;0.80;;;;;;;;;;107469;1271;64042;-28
2022/03/27 11:47:20;;;;;;;;;;;;;;;;;;107453;1271;63920;-29
2022/03/27 11:49:49;;;;;;;4.50;0.80;;;;;;;;;;107444;1271;64060;-32
2022/03/27 11:52:22;;;;;;;4.50;1.20;;;;;;;;;;107318;1271;64160;-30
2022/03/27 11:54:49;;;;;;;3.30;0.80;;;;;;;;;;107449;1271;63906;-30
2022/03/27 11:57:16;;;;;;;4.90;1.20;;;;;;;;;;107444;1271;64046;-31
2022/03/27 11:59:51;;;;;;;4.50;0.90;;;;;;;;;;107454;1271;64020;-32
2022/03/27 12:02:19;;;;;;;4.30;1.20;;;;;;;;;;107359;1271;64037;-37
2022/03/27 12:04:57;;;;;;;4.80;0.90;;;;;;;;;;107474;1271;64033;-34
2022/03/27 12:07:26;;;;;;;4.60;1.30;;;;;;;;;;107200;1273;64020;-33
2022/03/27 12:09:58;;;;;;;3.90;1.20;;;;;;;;;;107260;1274;63954;-33
2022/03/27 12:12:27;;;;;;;3.90;1.10;;;;;;;;;;107393;1271;63924;-33
2022/03/27 12:15:02;;;;;;;2.60;0.80;;;;;;;;;;107487;1271;64037;-32
2022/03/27 12:17:31;;;;;;;3.70;0.90;;;;;;;;;;107427;1271;64383;-31
2022/03/27 12:20:08;;;;;;;5.00;1.20;;;;;;;;;;107446;1271;63941;-31
2022/03/27 12:22:46;;;;;;;3.90;1.10;;;;;;;;;;107467;1271;64014;-30
2022/03/27 12:25:28;;;;;;;4.10;1.00;;;;;;;;;;107432;1271;63956;-33
2022/03/27 12:30:53;;;;;;;3.70;1.00;;;;;;;;;;107452;1271;64606;-31
2022/03/27 12:33:23;;;;;;;4.90;1.30;;;;;;;;;;107308;1271;63926;-32
2022/03/27 12:36:10;;;;;;;4.10;1.40;;;;;;;;;;107305;1271;64003;-32
2022/03/27 12:38:38;;;;;;;4.90;1.30;;;;;;;;;;107452;1271;64152;-29
2022/03/27 12:41:08;;;;;;;3.90;1.20;;;;;;;;;;107507;1270;64207;-33
2022/03/27 12:43:35;;;;;;;7.10;4.90;;;;;;;;;;107462;1271;63927;-32
2022/03/27 12:46:22;;;;;;;28.50;25.90;;;;;;;;;;107298;1271;64055;-31
2022/03/27 12:49:03;;;;;;;36.00;32.90;;;;;;;;;;107448;1271;63906;-34
2022/03/27 12:51:30;;;;;;;19.60;17.60;;;;;;;;;;107455;1271;64179;-35
2022/03/27 12:54:08;;;;;;;24.80;22.40;;;;;;;;;;107323;1271;63950;-32
2022/03/27 12:57:06;;;;;;;18.40;16.60;;;;;;;;;;107498;1271;64055;-32
2022/03/27 12:59:42;;;;;;;33.50;30.50;;;;;;;;;;107237;1272;64108;-32
2022/03/27 13:02:24;;;;;;;37.10;33.70;;;;;;;;;;107486;1271;63969;-31
2022/03/27 13:05:02;;;;;;;38.90;35.20;;;;;;;;;;107437;1271;63940;-32
2022/03/27 13:07:52;;;;;;;45.90;41.80;;;;;;;;;;107272;1271;63960;-41
2022/03/27 13:10:21;;;;;;;39.40;35.90;;;;;;;;;;107380;1271;64029;-32
2022/03/27 13:12:58;;;;;;;46.90;42.50;;;;;;;;;;107429;1271;64063;-29
2022/03/27 13:15:44;;;;;;;50.10;45.50;;;;;;;;;;107438;1271;64018;-35
2022/03/27 13:18:16;;;;;;;54.60;49.80;;;;;;;;;;107428;1271;64046;-28
2022/03/27 13:20:45;;;;;;;55.90;50.80;;;;;;;;;;107476;1271;63893;-32
2022/03/27 13:23:13;;;;;;;57.30;52.20;;;;;;;;;;107473;1271;63935;-31
2022/03/27 13:25:41;;;;;;;54.10;49.10;;;;;;;;;;107449;1271;64052;-29
2022/03/27 13:28:09;;;;;;;50.80;46.20;;;;;;;;;;107422;1271;64046;-38
2022/03/27 13:30:37;;;;;;;49.10;44.50;;;;;;;;;;107192;1271;64177;-37
2022/03/27 13:33:04;;;;;;;46.00;41.80;;;;;;;;;;107444;1271;64053;-36
2022/03/27 13:35:34;;;;;;;44.20;40.20;;;;;;;;;;107498;1271;63925;-33
2022/03/27 13:38:01;;;;;;;46.10;41.90;;;;;;;;;;107427;1271;63935;-31
2022/03/27 13:43:17;;;;;;;41.30;37.50;;;;;;;;;;107427;1271;64019;-36
2022/03/27 13:45:43;;;;;;;40.40;36.80;;;;;;;;;;107431;1271;63901;-33
2022/03/27 13:48:11;;;;;;;42.10;38.20;;;;;;;;;;107180;1275;64043;-32
2022/03/27 13:50:40;;;;;;;38.30;34.70;;;;;;;;;;107452;1269;63954;-41
2022/03/27 13:53:08;;;;;;;40.30;36.50;;;;;;;;;;107457;1271;64020;-33
2022/03/27 13:55:35;;;;;;;37.10;33.60;;;;;;;;;;107438;1271;63949;-36
2022/03/27 13:58:03;;;;;;;37.30;34.00;;;;;;;;;;107462;1271;63890;-44
2022/03/27 14:00:33;;;;;;;37.10;33.80;;;;;;;;;;107270;1274;63990;-32
2022/03/27 14:03:00;;;;;;;36.90;33.50;;;;;;;;;;107279;1272;64181;-31
2022/03/27 14:05:38;;;;;;;35.30;32.00;;;;;;;;;;107443;1271;64016;-31
2022/03/27 14:08:09;;;;;;;33.40;30.30;;;;;;;;;;107419;1271;63903;-35
2022/03/27 14:10:36;;;;;;;31.40;28.60;;;;;;;;;;107458;1271;63930;-34
2022/03/27 14:13:03;;;;;;;31.10;28.30;;;;;;;;;;107476;1271;64158;-35
2022/03/27 14:15:34;;;;;;;29.50;26.70;;;;;;;;;;107433;1271;63954;-33
2022/03/27 14:18:02;;;;;;;30.40;27.60;;;;;;;;;;107295;1274;62861;-33
2022/03/27 14:20:33;;;;;;;28.60;26.00;;;;;;;;;;107442;1271;64068;-41
2022/03/27 14:23:00;;;;;;;27.60;25.00;;;;;;;;;;107465;1271;65390;-32
2022/03/27 14:25:27;;;;;;;27.10;24.60;;;;;;;;;;107428;1271;63934;-44
2022/03/27 14:27:57;;;;;;;28.20;25.40;;;;;;;;;;107451;1271;64026;-32
2022/03/27 14:30:24;;;;;;;26.60;24.20;;;;;;;;;;107476;1271;63934;-29
2022/03/27 14:32:52;;;;;;;25.10;22.70;;;;;;;;;;107447;1271;64000;-36
2022/03/27 14:35:19;;;;;;;24.50;22.10;;;;;;;;;;107471;1269;64171;-36
2022/03/27 14:37:47;;;;;;;24.40;22.10;;;;;;;;;;107476;1271;65011;-31
2022/03/27 14:40:17;;;;;;;23.40;21.20;;;;;;;;;;107279;1271;64058;-35
2022/03/27 14:42:46;;;;;;;23.30;21.10;;;;;;;;;;107314;1274;63941;-34
2022/03/27 14:45:14;;;;;;;21.50;19.50;;;;;;;;;;107406;1271;64046;-37
2022/03/27 14:47:44;;;;;;;21.60;19.50;;;;;;;;;;107461;1271;64631;-37
2022/03/27 14:50:16;;;;;;;20.20;18.20;;;;;;;;;;107459;1271;64000;-31
2022/03/27 14:52:43;;;;;;;21.40;19.30;;;;;;;;;;107435;1271;64026;-35
2022/03/27 14:57:59;;;;;;;19.10;17.20;;;;;;;;;;107232;1274;64020;-33
2022/03/27 15:00:26;;;;;;;20.10;18.20;;;;;;;;;;107460;1271;63970;-34
2022/03/27 15:02:57;;;;;;;18.60;16.80;;;;;;;;;;107450;1271;63909;-32
2022/03/27 15:05:24;;;;;;;15.80;14.20;;;;;;;;;;107420;1271;64052;-32